Time;durP1;ratioP1;P1;durP2;ratioP2;P2;SDS_P1;SDS_P2;PMS_P1;PMS_P2;Temp;Humidity;BMP_temperature;BMP_pressure;BME280_temperature;BME280_humidity;BME280_pressure;Samples;Min_cycle;Max_cycle;Signal;HPM_P1;HPM_P2
2021/12/19 00:00:55;;;;;;;10.15;5.85;;;5.90;91.60;;;;;;4974921;28;20031;-64
2021/12/19 00:11:05;;;;;;;9.05;6.68;;;6.20;91.30;;;;;;4974621;28;20034;-65
2021/12/19 00:13:30;;;;;;;7.78;6.30;;;6.20;91.20;;;;;;4978455;28;20456;-65
2021/12/19 00:15:56;;;;;;;14.65;8.65;;;6.10;91.30;;;;;;4976610;28;20030;-63
2021/12/19 00:18:22;;;;;;;11.73;7.43;;;6.10;91.50;;;;;;4977327;28;20042;-66
2021/12/19 00:20:48;;;;;;;10.82;6.68;;;6.10;91.60;;;;;;4979345;28;20030;-64
2021/12/19 00:23:14;;;;;;;8.55;7.05;;;6.10;91.70;;;;;;4975287;28;20034;-65
2021/12/19 00:25:39;;;;;;;11.45;7.35;;;6.00;91.90;;;;;;4977109;28;21352;-65
2021/12/19 00:28:06;;;;;;;13.98;8.82;;;6.00;92.10;;;;;;4975661;28;20061;-66
2021/12/19 00:30:32;;;;;;;13.77;9.27;;;5.90;92.20;;;;;;4978224;28;20716;-65
2021/12/19 00:32:58;;;;;;;15.88;10.88;;;6.00;92.20;;;;;;4981234;28;20117;-66
2021/12/19 00:35:24;;;;;;;17.88;11.07;;;6.10;92.10;;;;;;4977097;28;20042;-65
2021/12/19 00:37:50;;;;;;;19.02;12.40;;;6.20;92.00;;;;;;4976532;28;20030;-65
2021/12/19 00:40:16;;;;;;;13.70;8.32;;;6.10;92.10;;;;;;4977874;28;20038;-64
2021/12/19 00:42:42;;;;;;;8.52;5.95;;;6.20;92.10;;;;;;4977249;28;20022;-66
2021/12/19 00:45:26;;;;;;;10.40;5.57;;;6.10;92.20;;;;;;4981114;28;20066;-65
2021/12/19 00:47:52;;;;;;;10.63;6.47;;;6.00;92.80;;;;;;4984039;28;20117;-65
2021/12/19 00:50:18;;;;;;;10.13;6.28;;;5.70;93.30;;;;;;4978648;28;20041;-65
2021/12/19 00:52:46;;;;;;;7.40;6.38;;;5.60;93.90;;;;;;4973889;28;20054;-66
2021/12/19 00:55:14;;;;;;;9.85;6.80;;;5.40;94.30;;;;;;4979092;28;20065;-66
2021/12/19 00:57:40;;;;;;;9.63;6.55;;;5.30;94.60;;;;;;4979373;28;20085;-65
2021/12/19 01:00:09;;;;;;;10.52;7.07;;;5.30;94.90;;;;;;4979411;28;20065;-65
2021/12/19 01:02:35;;;;;;;8.25;6.22;;;5.30;95.00;;;;;;4985569;28;20019;-66
2021/12/19 01:05:01;;;;;;;8.73;7.00;;;5.30;95.10;;;;;;4979221;28;20512;-66
2021/12/19 01:07:27;;;;;;;10.10;7.20;;;5.40;95.00;;;;;;4983167;28;20026;-66
2021/12/19 01:09:53;;;;;;;9.75;6.75;;;5.50;94.90;;;;;;4978580;28;20030;-65
2021/12/19 01:12:18;;;;;;;9.40;7.35;;;5.70;94.60;;;;;;4984200;28;20030;-65
2021/12/19 01:14:44;;;;;;;11.15;7.70;;;5.80;94.50;;;;;;4983253;28;20070;-66
2021/12/19 01:17:10;;;;;;;10.43;7.53;;;5.90;94.20;;;;;;4983246;28;20104;-64
2021/12/19 01:19:36;;;;;;;10.77;7.75;;;6.00;94.00;;;;;;4981633;28;20039;-65
2021/12/19 01:22:04;;;;;;;9.77;7.45;;;6.10;93.90;;;;;;4981497;28;20027;-65
2021/12/19 01:24:30;;;;;;;9.30;6.78;;;6.20;93.90;;;;;;4986405;28;20039;-65
2021/12/19 01:26:55;;;;;;;9.90;7.63;;;6.00;94.30;;;;;;4983312;28;20045;-64
2021/12/19 01:29:21;;;;;;;11.35;7.97;;;6.00;94.50;;;;;;4978570;28;20039;-66
2021/12/19 01:31:47;;;;;;;10.32;7.60;;;6.00;94.50;;;;;;4983250;28;20038;-64
2021/12/19 01:34:13;;;;;;;10.20;7.82;;;6.00;94.70;;;;;;4981742;28;20081;-65
2021/12/19 01:36:43;;;;;;;8.77;7.20;;;5.90;95.00;;;;;;4980680;28;20077;-65
2021/12/19 01:39:10;;;;;;;9.30;7.03;;;5.70;95.30;;;;;;4975041;28;20034;-64
2021/12/19 01:41:44;;;;;;;12.40;7.72;;;5.70;95.60;;;;;;4978192;28;20034;-66
2021/12/19 01:44:10;;;;;;;11.52;6.75;;;5.60;95.80;;;;;;4982359;28;20057;-65
2021/12/19 01:46:36;;;;;;;8.63;6.93;;;5.50;96.00;;;;;;4984915;28;20061;-65
2021/12/19 01:49:03;;;;;;;10.43;7.63;;;5.50;96.20;;;;;;4984951;28;20022;-65
2021/12/19 01:51:28;;;;;;;12.95;8.35;;;5.50;96.30;;;;;;4979432;28;20393;-66
2021/12/19 01:53:54;;;;;;;10.63;7.05;;;5.40;96.50;;;;;;4980386;28;20038;-66
2021/12/19 01:56:21;;;;;;;9.90;7.30;;;5.40;96.60;;;;;;4983146;28;20591;-65
2021/12/19 01:58:47;;;;;;;11.77;7.63;;;5.50;96.60;;;;;;4980369;28;20556;-65
2021/12/19 02:01:13;;;;;;;12.13;7.30;;;5.40;96.70;;;;;;4978873;28;20027;-66
2021/12/19 02:03:40;;;;;;;9.43;6.75;;;5.40;96.80;;;;;;4983465;28;20037;-65
2021/12/19 02:06:05;;;;;;;10.95;7.07;;;5.50;96.90;;;;;;4979711;28;20037;-66
2021/12/19 02:08:31;;;;;;;9.05;6.25;;;5.60;96.90;;;;;;4978965;28;20035;-66
2021/12/19 02:10:57;;;;;;;9.55;6.15;;;5.60;96.80;;;;;;4982388;28;21145;-65
2021/12/19 02:13:23;;;;;;;10.73;7.00;;;5.70;96.60;;;;;;4980936;28;20030;-65
2021/12/19 02:15:49;;;;;;;8.70;7.13;;;5.80;96.50;;;;;;4979284;28;20053;-65
2021/12/19 02:18:18;;;;;;;12.27;7.97;;;5.90;96.30;;;;;;4983190;28;20502;-65
2021/12/19 02:20:55;;;;;;;11.75;7.63;;;6.00;95.90;;;;;;4977047;28;20447;-65
2021/12/19 02:23:24;;;;;;;10.13;7.90;;;6.10;95.70;;;;;;4982567;28;20420;-65
2021/12/19 02:25:50;;;;;;;13.13;9.15;;;6.20;95.60;;;;;;4978705;28;20026;-65
2021/12/19 02:28:16;;;;;;;10.52;7.72;;;6.30;95.40;;;;;;4979203;28;20027;-68
2021/12/19 02:30:42;;;;;;;8.85;6.65;;;6.40;95.20;;;;;;4981047;28;20041;-66
2021/12/19 02:33:13;;;;;;;11.18;7.18;;;6.50;95.20;;;;;;4975525;28;20733;-66
2021/12/19 02:35:41;;;;;;;10.15;7.40;;;6.60;95.00;;;;;;4977972;28;20117;-66
2021/12/19 02:49:04;;;;;;;10.05;7.45;;;6.40;95.20;;;;;;4977823;28;20083;-65
2021/12/19 02:51:34;;;;;;;10.80;7.82;;;6.40;95.30;;;;;;4982465;28;20519;-65
2021/12/19 02:54:00;;;;;;;9.90;7.13;;;6.40;95.20;;;;;;4977410;28;20740;-66
2021/12/19 02:56:27;;;;;;;11.15;7.68;;;6.40;95.20;;;;;;4981350;28;20043;-66
2021/12/19 02:58:53;;;;;;;9.45;7.30;;;6.50;95.10;;;;;;4979523;28;20029;-65
2021/12/19 03:01:20;;;;;;;10.05;7.45;;;6.60;94.90;;;;;;4977466;28;20030;-66
2021/12/19 03:03:46;;;;;;;8.57;6.47;;;6.60;94.90;;;;;;4978678;28;20019;-65
2021/12/19 03:06:12;;;;;;;10.65;6.60;;;6.70;94.70;;;;;;4978336;28;20041;-65
2021/12/19 03:08:43;;;;;;;8.65;6.30;;;6.80;94.80;;;;;;4972161;28;20058;-66
2021/12/19 03:12:00;;;;;;;8.10;7.00;;;6.80;94.50;;;;;;4976687;28;20165;-65
2021/12/19 03:19:27;;;;;;;10.23;7.65;;;7.00;94.00;;;;;;4974511;28;20140;-65
2021/12/19 03:21:53;;;;;;;9.40;7.07;;;6.80;94.10;;;;;;4976441;28;20027;-65
2021/12/19 03:24:18;;;;;;;9.85;6.82;;;6.60;94.50;;;;;;4978259;28;20041;-65
2021/12/19 03:26:44;;;;;;;7.28;6.07;;;6.50;94.70;;;;;;4978235;28;20845;-65
2021/12/19 03:29:10;;;;;;;6.53;5.35;;;6.60;94.80;;;;;;4979833;28;20038;-65
2021/12/19 03:31:36;;;;;;;7.68;6.07;;;6.70;94.70;;;;;;4981668;28;20689;-65
2021/12/19 03:34:04;;;;;;;6.88;6.03;;;6.80;94.60;;;;;;4977330;28;20035;-65
2021/12/19 03:36:31;;;;;;;7.85;6.50;;;6.90;94.30;;;;;;4981510;28;20046;-65
2021/12/19 03:38:59;;;;;;;9.73;7.15;;;7.00;94.30;;;;;;4978573;28;20033;-65
2021/12/19 03:41:34;;;;;;;8.38;6.82;;;7.00;94.20;;;;;;4979132;28;20872;-65
2021/12/19 03:44:04;;;;;;;8.50;6.88;;;7.00;94.10;;;;;;4978375;28;20503;-64
2021/12/19 03:46:31;;;;;;;7.43;6.25;;;7.00;94.10;;;;;;4977298;28;20069;-65
2021/12/19 03:48:56;;;;;;;7.32;5.90;;;6.90;94.10;;;;;;4975907;28;20101;-64
2021/12/19 03:51:23;;;;;;;7.80;6.63;;;6.70;94.20;;;;;;4980871;28;20481;-65
2021/12/19 03:53:48;;;;;;;8.13;6.47;;;6.70;94.50;;;;;;4981266;28;20552;-65
2021/12/19 03:56:14;;;;;;;10.52;7.93;;;6.70;94.40;;;;;;4978285;28;20034;-65
2021/12/19 03:58:40;;;;;;;10.13;8.02;;;6.70;94.40;;;;;;4979546;28;20023;-66
2021/12/19 04:01:08;;;;;;;10.00;7.43;;;6.70;94.30;;;;;;4975872;28;20123;-65
2021/12/19 04:03:34;;;;;;;9.07;6.85;;;6.80;94.10;;;;;;4978728;28;20030;-64
2021/12/19 04:06:00;;;;;;;10.02;6.90;;;6.80;94.20;;;;;;4975129;28;20571;-65
2021/12/19 04:08:26;;;;;;;9.00;7.03;;;6.80;94.10;;;;;;4980952;28;20221;-64
2021/12/19 04:10:53;;;;;;;7.55;6.10;;;6.90;94.00;;;;;;4978568;28;20031;-65
2021/12/19 04:13:19;;;;;;;7.72;6.25;;;6.90;93.90;;;;;;4980929;28;21016;-64
2021/12/19 04:15:47;;;;;;;7.85;5.88;;;6.90;93.90;;;;;;4979109;28;20031;-65
2021/12/19 04:18:13;;;;;;;7.15;5.93;;;7.00;93.70;;;;;;4981131;28;20042;-65
2021/12/19 04:20:40;;;;;;;7.90;5.97;;;7.00;93.40;;;;;;4977336;28;20110;-65
2021/12/19 04:23:06;;;;;;;7.57;6.35;;;6.90;93.20;;;;;;4981175;28;20046;-65
2021/12/19 04:25:32;;;;;;;8.63;5.50;;;6.80;93.50;;;;;;4981520;28;20038;-65
2021/12/19 04:27:58;;;;;;;7.97;5.63;;;6.80;93.60;;;;;;4982870;28;20033;-65
2021/12/19 04:30:25;;;;;;;6.28;4.68;;;6.70;93.70;;;;;;4979737;28;20031;-64
2021/12/19 04:33:05;;;;;;;5.93;4.70;;;6.50;93.40;;;;;;4983834;28;20030;-65
2021/12/19 04:35:34;;;;;;;6.82;5.57;;;6.50;93.60;;;;;;4982486;28;20073;-65
2021/12/19 04:41:08;;;;;;;5.72;4.35;;;6.60;93.70;;;;;;4982028;28;20543;-65
2021/12/19 04:52:05;;;;;;;9.85;7.15;;;6.80;93.10;;;;;;4983242;28;20089;-65
2021/12/19 04:55:10;;;;;;;26.33;16.92;;;6.90;93.00;;;;;;4979440;28;20046;-65
2021/12/19 04:59:54;;;;;;;12.90;10.32;;;7.00;92.80;;;;;;4980248;28;20040;-65
2021/12/19 05:15:50;;;;;;;9.48;6.78;;;6.80;92.90;;;;;;4978539;28;20408;-64
2021/12/19 05:18:16;;;;;;;7.40;6.03;;;6.80;93.00;;;;;;4984516;28;20038;-64
2021/12/19 05:20:52;;;;;;;16.27;14.32;;;6.80;93.00;;;;;;4981140;28;20029;-65
2021/12/19 05:23:35;;;;;;;20.05;15.15;;;6.70;93.10;;;;;;4982185;28;20040;-65
2021/12/19 05:26:01;;;;;;;15.60;11.75;;;6.70;93.10;;;;;;4983086;28;20053;-66
2021/12/19 05:28:27;;;;;;;17.48;14.55;;;6.50;93.20;;;;;;4980544;28;20054;-65
2021/12/19 05:30:52;;;;;;;21.20;18.88;;;6.50;93.30;;;;;;4978952;28;20128;-65
2021/12/19 05:33:19;;;;;;;8.13;6.45;;;6.60;93.50;;;;;;4979493;28;20027;-64
2021/12/19 05:36:12;;;;;;;4.90;4.40;;;6.60;93.50;;;;;;4981918;28;20483;-65
2021/12/19 05:46:52;;;;;;;8.88;6.00;;;6.60;93.40;;;;;;4980400;28;20096;-65
2021/12/19 05:49:18;;;;;;;5.60;4.47;;;6.60;93.70;;;;;;4978707;28;20026;-65
2021/12/19 05:51:43;;;;;;;4.20;3.80;;;6.60;93.70;;;;;;4986402;28;20405;-65
2021/12/19 05:54:10;;;;;;;4.75;4.10;;;6.50;94.00;;;;;;4980947;28;20041;-65
2021/12/19 05:56:36;;;;;;;5.43;3.97;;;6.40;94.20;;;;;;4976225;28;20501;-66
2021/12/19 05:59:02;;;;;;;4.20;3.80;;;6.40;94.40;;;;;;4979655;28;20030;-65
2021/12/19 06:01:28;;;;;;;4.90;4.05;;;6.20;94.70;;;;;;4979537;28;20571;-66
2021/12/19 06:03:53;;;;;;;5.65;3.88;;;6.10;95.00;;;;;;4979991;28;20031;-66
2021/12/19 06:06:19;;;;;;;6.15;4.47;;;6.10;95.10;;;;;;4981225;28;20030;-67
2021/12/19 06:08:45;;;;;;;7.18;5.68;;;6.20;94.90;;;;;;4977099;28;20060;-66
2021/12/19 06:11:10;;;;;;;8.02;6.18;;;6.20;94.90;;;;;;4977702;28;20192;-66
2021/12/19 06:13:37;;;;;;;5.28;4.63;;;6.20;94.80;;;;;;4978971;28;20081;-66
2021/12/19 06:16:08;;;;;;;5.75;4.43;;;6.30;94.80;;;;;;4982381;28;20508;-66
2021/12/19 06:18:33;;;;;;;11.30;7.95;;;6.30;94.80;;;;;;4977585;28;20030;-66
2021/12/19 06:20:59;;;;;;;4.95;3.58;;;6.30;94.80;;;;;;4980307;28;20045;-65
2021/12/19 06:23:25;;;;;;;4.22;3.30;;;6.20;94.80;;;;;;4977182;28;20801;-65
2021/12/19 06:25:50;;;;;;;15.98;12.23;;;6.20;95.00;;;;;;4980269;28;20750;-65
2021/12/19 06:28:18;;;;;;;4.18;3.33;;;6.10;95.20;;;;;;4979480;28;20161;-66
2021/12/19 06:30:44;;;;;;;5.72;3.88;;;6.00;95.30;;;;;;4977268;28;20035;-65
2021/12/19 06:33:10;;;;;;;3.80;3.40;;;6.00;95.40;;;;;;4978248;28;20488;-66
2021/12/19 06:35:36;;;;;;;11.05;9.15;;;6.10;95.10;;;;;;4980755;28;20027;-66
2021/12/19 06:38:01;;;;;;;21.10;15.07;;;6.20;94.90;;;;;;4980083;28;20127;-65
2021/12/19 06:40:28;;;;;;;16.73;12.73;;;6.30;94.80;;;;;;4975727;28;20030;-66
2021/12/19 06:42:53;;;;;;;10.60;9.07;;;6.40;94.60;;;;;;4977522;28;20026;-66
2021/12/19 06:45:20;;;;;;;6.25;5.47;;;6.40;94.30;;;;;;4979928;28;20066;-66
2021/12/19 06:47:47;;;;;;;10.70;8.98;;;6.50;94.40;;;;;;4976913;28;20035;-66
2021/12/19 06:50:15;;;;;;;12.73;10.20;;;6.50;94.30;;;;;;4978496;28;20477;-66
2021/12/19 06:52:41;;;;;;;4.97;4.43;;;6.60;94.30;;;;;;4977590;28;20026;-66
2021/12/19 06:55:09;;;;;;;3.40;2.95;;;6.60;94.40;;;;;;4978218;28;20567;-67
2021/12/19 06:57:36;;;;;;;3.95;3.00;;;6.50;94.10;;;;;;4980206;28;20066;-66
2021/12/19 07:00:09;;;;;;;3.60;2.50;;;6.40;94.80;;;;;;4977528;28;20643;-65
2021/12/19 07:02:35;;;;;;;2.88;2.58;;;6.20;94.90;;;;;;4979894;28;20073;-66
2021/12/19 07:05:01;;;;;;;2.95;2.63;;;6.20;94.90;;;;;;4978821;28;20060;-66
2021/12/19 07:07:27;;;;;;;2.05;1.85;;;6.30;95.00;;;;;;4980617;28;20064;-66
2021/12/19 07:09:52;;;;;;;3.65;2.92;;;6.40;94.40;;;;;;4979631;28;20072;-66
2021/12/19 07:12:18;;;;;;;6.85;5.07;;;6.50;94.20;;;;;;4975344;28;20504;-66
2021/12/19 07:14:44;;;;;;;6.68;5.30;;;6.60;94.30;;;;;;4977809;28;20132;-66
2021/12/19 07:17:11;;;;;;;4.65;3.40;;;6.70;94.40;;;;;;4978242;28;20432;-66
2021/12/19 07:19:36;;;;;;;5.05;3.97;;;6.70;94.30;;;;;;4976079;28;20089;-66
2021/12/19 07:22:02;;;;;;;2.55;2.10;;;6.80;94.10;;;;;;4974171;28;20050;-66
2021/12/19 07:24:28;;;;;;;4.00;3.40;;;6.80;94.00;;;;;;4979115;28;20042;-65
2021/12/19 07:26:54;;;;;;;6.88;4.55;;;6.80;94.10;;;;;;4978317;28;20038;-66
2021/12/19 07:29:19;;;;;;;1.92;1.73;;;6.90;94.00;;;;;;4979190;28;20401;-66
2021/12/19 07:31:45;;;;;;;2.10;1.90;;;6.90;93.80;;;;;;4974849;28;20844;-66
2021/12/19 07:34:11;;;;;;;2.90;2.00;;;6.70;94.30;;;;;;4977348;28;20061;-66
2021/12/19 07:36:43;;;;;;;2.40;1.95;;;6.50;94.70;;;;;;4979493;28;20046;-66
2021/12/19 07:39:24;;;;;;;1.50;1.35;;;6.50;95.00;;;;;;4978016;28;20528;-66
2021/12/19 07:41:50;;;;;;;1.88;1.70;;;6.60;94.40;;;;;;4982188;28;20035;-66
2021/12/19 07:44:15;;;;;;;1.60;1.50;;;6.80;94.40;;;;;;4982728;28;20040;-66
2021/12/19 07:46:42;;;;;;;2.00;1.80;;;6.90;94.30;;;;;;4980613;28;20497;-65
2021/12/19 07:49:08;;;;;;;2.17;1.83;;;7.00;94.30;;;;;;4979235;28;20033;-65
2021/12/19 07:51:34;;;;;;;2.63;2.03;;;7.10;94.20;;;;;;4977367;28;20038;-65
2021/12/19 07:54:01;;;;;;;1.75;1.65;;;7.20;93.90;;;;;;4980686;28;20081;-66
2021/12/19 07:56:27;;;;;;;2.20;1.98;;;7.20;94.00;;;;;;4982235;28;20042;-66
2021/12/19 07:58:52;;;;;;;2.60;2.33;;;7.30;93.90;;;;;;4981328;28;20023;-66
2021/12/19 08:01:18;;;;;;;2.40;1.83;;;7.20;94.20;;;;;;4980915;28;20043;-66
2021/12/19 08:03:44;;;;;;;4.75;2.03;;;7.20;94.00;;;;;;4979565;28;20506;-67
2021/12/19 08:06:09;;;;;;;1.98;1.80;;;7.10;94.30;;;;;;4978627;28;20049;-65
2021/12/19 08:08:36;;;;;;;2.50;2.28;;;7.00;94.40;;;;;;4985802;28;20686;-65
2021/12/19 08:13:46;;;;;;;2.70;2.17;;;7.00;94.40;;;;;;4983251;28;20041;-65
2021/12/19 08:16:12;;;;;;;3.90;3.15;;;7.10;94.60;;;;;;4983260;28;20200;-65
2021/12/19 08:18:37;;;;;;;2.55;2.30;;;7.00;94.80;;;;;;4984416;28;20058;-65
2021/12/19 08:21:03;;;;;;;3.03;2.50;;;6.90;95.30;;;;;;4987469;28;20436;-65
2021/12/19 08:23:29;;;;;;;2.42;2.20;;;7.00;94.80;;;;;;4985058;28;20404;-65
2021/12/19 08:25:54;;;;;;;2.70;2.50;;;6.90;94.90;;;;;;4984635;28;20035;-64
2021/12/19 08:28:20;;;;;;;2.55;2.30;;;6.90;94.90;;;;;;4983089;28;20472;-65
2021/12/19 08:30:46;;;;;;;3.88;3.47;;;6.70;95.30;;;;;;4981381;28;20031;-65
2021/12/19 08:33:12;;;;;;;4.72;3.00;;;6.50;96.00;;;;;;4984043;28;20046;-65
2021/12/19 08:35:37;;;;;;;4.15;3.75;;;6.40;96.10;;;;;;4988223;28;20550;-65
2021/12/19 08:38:03;;;;;;;3.63;3.00;;;6.50;96.30;;;;;;4982743;28;20062;-65
2021/12/19 08:40:31;;;;;;;3.25;2.95;;;6.40;96.30;;;;;;4983065;28;20034;-65
2021/12/19 08:42:57;;;;;;;3.75;3.33;;;6.30;96.70;;;;;;4987069;28;20636;-65
2021/12/19 08:45:23;;;;;;;3.42;3.10;;;6.40;96.70;;;;;;4984482;28;20085;-65
2021/12/19 08:47:49;;;;;;;3.50;2.97;;;6.40;96.70;;;;;;4981678;28;20061;-65
2021/12/19 08:50:15;;;;;;;3.47;2.83;;;6.50;96.50;;;;;;4980969;28;20034;-65
2021/12/19 08:52:42;;;;;;;5.18;4.00;;;6.60;96.40;;;;;;4982189;28;20034;-65
2021/12/19 08:55:09;;;;;;;4.50;4.07;;;6.60;96.50;;;;;;4983937;28;20029;-64
2021/12/19 08:57:35;;;;;;;4.10;3.67;;;6.50;96.70;;;;;;4984190;28;20031;-65
2021/12/19 09:00:04;;;;;;;4.20;3.72;;;6.40;96.80;;;;;;4984780;28;20034;-65
2021/12/19 09:02:30;;;;;;;4.55;3.97;;;6.40;96.80;;;;;;4982382;28;20029;-65
2021/12/19 09:04:56;;;;;;;4.20;3.80;;;6.40;96.80;;;;;;4980810;28;20030;-65
2021/12/19 09:07:21;;;;;;;4.38;3.60;;;6.30;96.80;;;;;;4985804;28;20038;-65
2021/12/19 09:09:48;;;;;;;4.68;3.15;;;6.40;97.10;;;;;;4981774;28;20030;-64
2021/12/19 09:12:14;;;;;;;4.35;3.90;;;6.40;96.90;;;;;;4980258;28;20133;-65
2021/12/19 09:14:40;;;;;;;4.10;3.63;;;6.50;97.00;;;;;;4981295;28;20031;-64
2021/12/19 09:17:06;;;;;;;5.60;3.78;;;6.50;96.90;;;;;;4975088;28;20042;-65
2021/12/19 09:19:31;;;;;;;4.20;3.80;;;6.50;96.70;;;;;;4972605;28;20065;-64
2021/12/19 09:21:57;;;;;;;3.38;3.03;;;6.50;96.70;;;;;;4971196;28;20030;-65
2021/12/19 09:24:23;;;;;;;4.80;3.97;;;6.60;96.50;;;;;;4976004;28;20425;-66
2021/12/19 09:26:49;;;;;;;4.95;4.45;;;6.60;96.60;;;;;;4976693;28;20097;-66
2021/12/19 09:29:14;;;;;;;3.88;3.53;;;6.50;96.70;;;;;;4981964;28;20034;-65
2021/12/19 09:31:40;;;;;;;5.05;4.55;;;6.50;96.60;;;;;;4982231;28;20031;-65
2021/12/19 09:34:07;;;;;;;15.90;14.23;;;6.40;96.70;;;;;;4979290;28;20052;-64
2021/12/19 09:36:34;;;;;;;5.20;4.40;;;6.40;96.90;;;;;;4981299;28;20081;-65
2021/12/19 09:39:03;;;;;;;8.38;7.53;;;6.40;96.80;;;;;;4980472;28;20069;-65
2021/12/19 09:41:33;;;;;;;6.28;5.68;;;6.40;96.90;;;;;;4982292;28;20032;-65
2021/12/19 09:44:04;;;;;;;4.78;3.90;;;6.50;97.00;;;;;;4980574;28;20408;-65
2021/12/19 09:46:34;;;;;;;4.82;4.05;;;6.40;97.00;;;;;;4981997;28;20551;-65
2021/12/19 09:49:00;;;;;;;5.32;3.80;;;6.40;96.90;;;;;;4981254;28;20060;-66
2021/12/19 09:51:26;;;;;;;9.57;8.73;;;6.30;96.90;;;;;;4977672;28;20133;-65
2021/12/19 09:53:52;;;;;;;6.15;5.00;;;6.40;97.00;;;;;;4981344;28;20070;-65
2021/12/19 09:56:18;;;;;;;6.78;4.60;;;6.40;97.10;;;;;;4979518;28;20039;-65
2021/12/19 09:58:44;;;;;;;7.90;4.50;;;6.40;97.20;;;;;;4980908;28;20022;-66
2021/12/19 10:01:12;;;;;;;4.93;3.92;;;6.30;97.50;;;;;;4977379;28;20031;-65
2021/12/19 10:03:38;;;;;;;4.30;3.90;;;6.30;97.20;;;;;;4979198;28;20111;-65
2021/12/19 10:06:18;;;;;;;5.90;4.57;;;6.30;97.10;;;;;;4977634;28;20085;-65
2021/12/19 10:08:48;;;;;;;7.30;5.20;;;6.50;97.00;;;;;;4976470;28;20539;-65
2021/12/19 10:11:45;;;;;;;5.97;4.07;;;6.50;96.90;;;;;;4972240;28;20077;-66
2021/12/19 10:14:26;;;;;;;9.43;5.95;;;6.60;96.80;;;;;;4976169;28;20038;-65
2021/12/19 10:16:53;;;;;;;222.68;75.97;;;6.50;97.10;;;;;;4977515;28;20062;-65
2021/12/19 10:19:19;;;;;;;101.68;42.33;;;6.50;97.10;;;;;;4978237;28;20058;-65
2021/12/19 10:21:44;;;;;;;31.25;15.55;;;6.50;97.00;;;;;;4977579;28;20117;-65
2021/12/19 10:24:31;;;;;;;10.90;7.97;;;6.50;96.90;;;;;;4979680;28;20026;-66
2021/12/19 10:26:58;;;;;;;5.00;4.50;;;6.50;97.10;;;;;;4982983;28;20544;-65
2021/12/19 10:29:44;;;;;;;13.63;12.23;;;6.50;97.00;;;;;;4972785;28;20026;-65
2021/12/19 10:32:10;;;;;;;24.00;21.42;;;6.60;96.80;;;;;;4971819;28;20027;-65
2021/12/19 10:34:36;;;;;;;11.07;10.02;;;6.70;96.70;;;;;;4975287;28;20040;-65
2021/12/19 10:37:02;;;;;;;12.52;9.57;;;6.60;96.70;;;;;;4977909;28;20489;-68
2021/12/19 10:39:41;;;;;;;18.08;13.70;;;6.50;96.90;;;;;;4979623;28;20090;-66
2021/12/19 10:42:09;;;;;;;28.40;19.42;;;6.50;97.00;;;;;;4973329;28;20034;-65
2021/12/19 10:47:25;;;;;;;7.57;5.95;;;6.70;96.90;;;;;;4976409;28;20061;-65
2021/12/19 10:49:51;;;;;;;6.18;5.00;;;6.80;96.40;;;;;;4974009;28;20038;-66
2021/12/19 10:52:34;;;;;;;6.75;4.70;;;6.80;96.30;;;;;;4975377;28;20030;-66
2021/12/19 10:55:03;;;;;;;8.40;5.85;;;6.70;96.60;;;;;;4977734;28;20213;-65
2021/12/19 10:57:40;;;;;;;9.02;7.82;;;6.50;96.80;;;;;;4977437;28;20062;-66
2021/12/19 11:00:21;;;;;;;13.63;11.13;;;6.60;96.80;;;;;;4980605;28;20076;-65
2021/12/19 11:02:47;;;;;;;9.40;6.53;;;6.60;96.80;;;;;;4981151;28;20046;-65
2021/12/19 11:05:36;;;;;;;10.50;8.02;;;6.70;96.70;;;;;;4972023;28;20038;-65
2021/12/19 11:08:04;;;;;;;8.52;6.78;;;6.80;96.60;;;;;;4980003;28;20054;-65
2021/12/19 11:10:30;;;;;;;20.20;14.40;;;6.90;96.30;;;;;;4984932;28;20073;-65
2021/12/19 11:13:14;;;;;;;12.38;9.52;;;6.90;96.00;;;;;;4979629;28;20045;-64
2021/12/19 11:15:41;;;;;;;14.00;11.07;;;6.90;96.10;;;;;;4976582;28;20026;-65
2021/12/19 11:18:08;;;;;;;9.38;7.53;;;6.90;96.40;;;;;;4978166;28;20493;-66
2021/12/19 11:20:34;;;;;;;6.55;5.70;;;6.90;96.10;;;;;;4977415;28;20650;-65
2021/12/19 11:23:01;;;;;;;8.95;7.20;;;6.80;96.00;;;;;;4978858;28;20050;-64
2021/12/19 11:25:26;;;;;;;11.15;9.20;;;6.90;96.00;;;;;;4973852;28;20050;-65
2021/12/19 11:27:53;;;;;;;10.25;8.90;;;7.00;95.90;;;;;;4979491;28;20037;-65
2021/12/19 11:30:19;;;;;;;10.40;9.35;;;7.00;95.90;;;;;;4978719;28;20124;-65
2021/12/19 11:33:15;;;;;;;5.30;3.75;;;7.10;95.80;;;;;;4978198;28;20034;-65
2021/12/19 11:35:46;;;;;;;5.40;3.75;;;7.00;95.50;;;;;;4977588;28;20062;-65
2021/12/19 11:38:13;;;;;;;5.10;4.32;;;7.00;95.70;;;;;;4971051;28;20039;-65
2021/12/19 11:40:39;;;;;;;4.72;4.28;;;7.00;95.70;;;;;;4974432;28;20034;-65
2021/12/19 11:43:09;;;;;;;15.25;13.68;;;7.00;95.80;;;;;;4974566;28;20229;-66
2021/12/19 11:45:42;;;;;;;8.10;5.35;;;7.00;95.80;;;;;;4974778;28;20050;-66
2021/12/19 11:48:16;;;;;;;6.78;6.05;;;7.10;95.50;;;;;;4977395;28;20471;-66
2021/12/19 11:50:53;;;;;;;6.20;4.47;;;7.20;95.30;;;;;;4980900;28;22315;-65
2021/12/19 11:53:23;;;;;;;12.43;8.57;;;7.30;95.30;;;;;;4982508;28;20032;-66
2021/12/19 11:55:56;;;;;;;11.82;8.40;;;7.40;94.90;;;;;;4977369;28;20512;-66
2021/12/19 11:58:28;;;;;;;11.43;6.95;;;7.50;94.70;;;;;;4971812;28;20027;-66
2021/12/19 12:00:54;;;;;;;;;;;7.60;94.60;;;;;;4974489;28;22569;-66
2021/12/19 12:03:23;;;;;;;15.27;10.98;;;7.80;94.30;;;;;;4977900;28;19917;-65
2021/12/19 12:06:13;;;;;;;19.10;13.43;;;7.80;94.20;;;;;;4982082;28;20029;-65
2021/12/19 12:08:39;;;;;;;11.50;8.88;;;7.70;94.10;;;;;;4974963;28;20414;-64
2021/12/19 12:11:04;;;;;;;4.68;3.83;;;7.60;94.30;;;;;;4978051;28;20039;-64
2021/12/19 12:13:34;;;;;;;5.72;4.68;;;7.30;94.70;;;;;;4977420;28;20033;-63
2021/12/19 12:16:13;;;;;;;5.40;3.83;;;7.20;94.80;;;;;;4970995;28;20042;-65
2021/12/19 12:18:41;;;;;;;6.00;3.67;;;7.10;95.10;;;;;;4980199;28;20026;-64
2021/12/19 12:24:12;;;;;;;17.65;15.27;;;7.10;95.10;;;;;;4980115;28;20070;-64
2021/12/19 12:26:54;;;;;;;7.00;6.18;;;7.10;95.20;;;;;;4981557;28;20154;-64
2021/12/19 12:29:22;;;;;;;14.57;8.43;;;7.20;94.90;;;;;;4978129;28;20111;-64
2021/12/19 12:31:48;;;;;;;21.17;14.57;;;7.30;94.60;;;;;;4976427;28;20085;-64
2021/12/19 12:34:16;;;;;;;41.95;25.20;;;7.20;94.50;;;;;;4981337;28;20499;-64
2021/12/19 12:36:42;;;;;;;22.60;14.55;;;7.30;94.60;;;;;;4984522;28;20034;-64
2021/12/19 12:39:17;;;;;;;29.42;19.75;;;7.20;94.90;;;;;;4981015;28;20049;-64
2021/12/19 12:44:20;;;;;;;4.30;3.70;;;7.10;94.90;;;;;;4980678;28;20058;-64
2021/12/19 12:46:46;;;;;;;6.32;4.15;;;7.20;95.00;;;;;;4984735;28;20046;-66
2021/12/19 12:49:26;;;;;;;4.05;3.70;;;7.10;95.00;;;;;;4981285;28;20022;-64
2021/12/19 12:51:58;;;;;;;5.28;3.65;;;7.10;95.00;;;;;;4989012;28;20030;-64
2021/12/19 12:54:33;;;;;;;4.82;3.78;;;6.90;95.20;;;;;;4984997;28;20042;-64
2021/12/19 12:57:02;;;;;;;4.43;3.97;;;6.90;95.30;;;;;;4987558;28;20112;-64
2021/12/19 12:59:32;;;;;;;5.53;4.03;;;7.00;95.30;;;;;;4983959;28;20085;-65
2021/12/19 13:04:59;;;;;;;5.43;4.00;;;7.20;94.70;;;;;;4979628;28;20521;-65
2021/12/19 13:07:26;;;;;;;3.70;3.35;;;7.20;94.40;;;;;;4982438;28;20031;-64
2021/12/19 13:09:57;;;;;;;4.32;3.50;;;7.20;94.50;;;;;;4978846;28;20092;-65
2021/12/19 13:12:30;;;;;;;3.28;2.97;;;7.10;94.90;;;;;;4983215;28;20709;-65
2021/12/19 13:14:57;;;;;;;3.70;3.10;;;7.10;95.10;;;;;;4979502;28;20035;-65
2021/12/19 13:17:35;;;;;;;2.90;2.60;;;7.10;95.10;;;;;;4984386;28;20058;-64
2021/12/19 13:20:10;;;;;;;8.65;3.15;;;7.00;94.70;;;;;;4984346;28;20022;-68
2021/12/19 13:22:50;;;;;;;3.05;2.67;;;6.90;94.90;;;;;;4983156;28;20039;-69
2021/12/19 13:25:15;;;;;;;3.58;2.88;;;6.80;95.20;;;;;;4986252;28;20022;-65
2021/12/19 13:27:44;;;;;;;3.05;2.70;;;6.70;95.70;;;;;;4988313;28;20088;-64
2021/12/19 13:30:14;;;;;;;3.70;2.70;;;6.60;95.70;;;;;;4983507;28;20559;-63
2021/12/19 13:32:48;;;;;;;4.20;2.83;;;6.70;95.80;;;;;;4984583;28;20500;-64
2021/12/19 13:35:24;;;;;;;5.00;3.30;;;6.70;95.80;;;;;;4985295;28;20037;-64
2021/12/19 13:37:55;;;;;;;3.00;2.70;;;6.60;95.90;;;;;;4987983;28;20026;-66
2021/12/19 13:40:24;;;;;;;3.47;2.87;;;6.60;95.90;;;;;;4981568;28;20037;-67
2021/12/19 13:42:51;;;;;;;3.00;2.70;;;6.50;96.20;;;;;;4981282;28;20273;-65
2021/12/19 13:45:27;;;;;;;4.10;3.13;;;6.40;96.20;;;;;;4987118;28;20050;-66
2021/12/19 13:47:55;;;;;;;3.20;2.90;;;6.40;96.40;;;;;;4981151;28;20493;-66
2021/12/19 13:50:21;;;;;;;3.20;2.85;;;6.40;96.30;;;;;;4982942;28;20082;-65
2021/12/19 13:52:47;;;;;;;3.30;2.55;;;6.40;96.50;;;;;;4982648;28;20030;-65
2021/12/19 13:55:16;;;;;;;4.25;2.78;;;6.40;96.60;;;;;;4982816;28;20038;-65
2021/12/19 13:57:43;;;;;;;4.03;2.97;;;6.40;96.60;;;;;;4985290;28;20039;-65
2021/12/19 14:00:27;;;;;;;3.90;3.15;;;6.40;96.70;;;;;;4979793;28;20109;-67
2021/12/19 14:02:53;;;;;;;3.08;2.78;;;6.40;96.90;;;;;;4981197;28;20109;-64
2021/12/19 14:05:40;;;;;;;4.13;3.10;;;6.40;96.80;;;;;;4980019;28;20145;-67
2021/12/19 14:08:18;;;;;;;3.78;3.08;;;6.40;96.90;;;;;;4976825;28;20069;-64
2021/12/19 14:10:43;;;;;;;2.92;2.63;;;6.30;96.90;;;;;;4980355;28;20081;-64
2021/12/19 14:13:15;;;;;;;3.15;2.85;;;6.30;97.10;;;;;;4979796;28;20034;-64